Time;durP1;ratioP1;P1;durP2;ratioP2;P2;SDS_P1;SDS_P2;PMS_P1;PMS_P2;Temp;Humidity;BMP_temperature;BMP_pressure;BME280_temperature;BME280_humidity;BME280_pressure;Samples;Min_cycle;Max_cycle;Signal;HPM_P1;HPM_P2
2022/12/11 00:01:58;;;;;;;17.13;15.27;;;;;;;11.68;74.91;92872.59;5030010;28;20238;-65
2022/12/11 00:04:24;;;;;;;18.83;15.40;;;;;;;11.54;75.50;92879.75;5019709;28;20249;-65
2022/12/11 00:06:50;;;;;;;21.63;16.93;;;;;;;11.25;76.51;92876.66;5034975;28;20224;-66
2022/12/11 00:09:19;;;;;;;20.97;18.10;;;;;;;11.34;76.04;92877.22;5063207;28;20210;-66
2022/12/11 00:11:45;;;;;;;20.90;16.80;;;;;;;11.38;76.25;92874.97;5038456;28;20222;-66
2022/12/11 00:14:12;;;;;;;20.23;15.97;;;;;;;11.60;75.72;92854.41;5021625;28;20345;-65
2022/12/11 00:16:37;;;;;;;21.17;16.83;;;;;;;11.68;75.02;92883.13;5034139;28;20229;-65
2022/12/11 00:19:03;;;;;;;19.40;15.70;;;;;;;11.66;75.16;92841.22;5046919;28;20242;-65
2022/12/11 00:21:29;;;;;;;19.23;16.33;;;;;;;11.70;75.18;92865.28;5020509;28;20262;-66
2022/12/11 00:23:54;;;;;;;21.23;17.60;;;;;;;11.15;76.89;92859.69;5046043;28;20231;-65
2022/12/11 00:26:20;;;;;;;20.23;17.67;;;;;;;11.16;77.51;92861.28;5033045;28;20229;-65
2022/12/11 00:28:46;;;;;;;23.90;17.97;;;;;;;11.35;77.25;92851.72;5031515;28;20222;-65
2022/12/11 00:31:16;;;;;;;23.37;17.83;;;;;;;11.43;76.30;92825.94;5041259;28;20217;-65
2022/12/11 00:33:43;;;;;;;18.47;16.23;;;;;;;11.58;76.08;92861.72;5046923;28;20265;-66
2022/12/11 00:36:18;;;;;;;18.33;15.63;;;;;;;11.64;75.79;92845.09;5026570;28;20193;-66
2022/12/11 00:38:43;;;;;;;23.43;18.00;;;;;;;11.37;76.30;92871.53;5037167;28;20221;-65
2022/12/11 00:41:09;;;;;;;22.03;16.60;;;;;;;11.31;77.08;92843.44;5029772;28;20245;-65
2022/12/11 00:43:35;;;;;;;17.67;15.77;;;;;;;11.16;77.17;92884.97;5032220;28;20242;-65
2022/12/11 00:46:01;;;;;;;16.80;14.27;;;;;;;11.27;76.70;92803.56;5022053;28;20213;-66
2022/12/11 00:48:26;;;;;;;17.87;15.73;;;;;;;11.25;76.81;92860.03;5029334;28;20277;-65
2022/12/11 00:50:52;;;;;;;20.87;16.97;;;;;;;11.27;77.43;92808.03;5032236;28;20218;-65
2022/12/11 00:53:17;;;;;;;21.23;16.07;;;;;;;11.52;76.50;92862.56;5023528;28;20215;-65
2022/12/11 00:55:43;;;;;;;20.60;15.43;;;;;;;11.25;77.23;92847.72;5027891;28;20224;-66
2022/12/11 00:58:10;;;;;;;18.47;15.57;;;;;;;11.31;76.87;92863.69;5027491;28;20222;-65
2022/12/11 01:00:35;;;;;;;21.70;16.27;;;;;;;11.35;76.78;92856.97;5039881;28;20228;-65
2022/12/11 01:03:01;;;;;;;20.03;16.80;;;;;;;11.58;76.16;92838.03;5027490;28;20344;-65
2022/12/11 01:05:26;;;;;;;19.13;15.23;;;;;;;11.66;75.70;92835.97;5020418;28;20219;-65
2022/12/11 01:07:52;;;;;;;19.57;15.73;;;;;;;11.75;75.42;92846.25;5021212;28;20222;-66
2022/12/11 01:10:23;;;;;;;21.63;15.63;;;;;;;11.77;75.29;92850.28;5021702;28;20309;-66
2022/12/11 01:13:03;;;;;;;17.67;15.30;;;;;;;11.76;75.13;92866.28;5021648;28;20230;-66
2022/12/11 01:15:33;;;;;;;19.30;15.80;;;;;;;11.26;76.92;92864.31;5041077;28;20255;-65
2022/12/11 01:17:58;;;;;;;15.83;14.07;;;;;;;11.50;75.99;92848.81;5043620;28;20247;-65
2022/12/11 01:20:25;;;;;;;15.17;12.77;;;;;;;11.64;75.47;92842.44;5038962;28;20230;-65
2022/12/11 01:22:58;;;;;;;18.27;13.97;;;;;;;11.51;75.59;92892.53;5045265;28;20255;-65
2022/12/11 01:25:24;;;;;;;16.53;13.63;;;;;;;11.50;75.88;92856.72;5042021;28;20225;-65
2022/12/11 01:27:51;;;;;;;16.10;14.13;;;;;;;11.72;75.50;92896.69;5046214;28;20192;-65
2022/12/11 01:30:18;;;;;;;18.53;13.60;;;;;;;11.33;77.84;92886.09;5043504;28;20202;-65
2022/12/11 01:32:43;;;;;;;18.43;13.33;;;;;;;11.50;77.48;92867.25;5038981;28;20210;-65
2022/12/11 01:35:10;;;;;;;18.23;14.33;;;;;;;11.65;77.39;92857.22;5040351;28;20285;-65
2022/12/11 01:37:36;;;;;;;19.80;15.07;;;;;;;11.75;77.68;92856.78;5039999;28;20217;-64
2022/12/11 01:40:03;;;;;;;15.10;12.60;;;;;;;11.81;77.38;92834.84;5043140;28;20229;-65
2022/12/11 01:42:29;;;;;;;17.67;13.63;;;;;;;11.69;77.82;92819.72;5050174;28;20190;-67
2022/12/11 01:45:31;;;;;;;18.53;13.57;;;;;;;11.84;78.29;92829.16;5016594;28;20214;-64
2022/12/11 01:47:59;;;;;;;18.10;12.13;;;;;;;11.84;78.01;92824.72;5012732;28;20217;-64
2022/12/11 01:50:25;;;;;;;17.07;12.87;;;;;;;11.82;78.33;92853.06;5016633;28;20238;-65
2022/12/11 01:52:51;;;;;;;13.23;11.23;;;;;;;11.80;79.07;92799.00;5027311;28;20237;-65
2022/12/11 01:55:17;;;;;;;15.77;12.17;;;;;;;11.79;78.93;92792.94;5044985;28;20237;-65
2022/12/11 01:57:47;;;;;;;15.17;12.23;;;;;;;11.81;78.84;92814.59;5042739;28;20181;-65
2022/12/11 02:00:13;;;;;;;12.43;11.23;;;;;;;11.87;78.58;92842.75;5041194;28;20181;-66
2022/12/11 02:02:39;;;;;;;11.47;10.27;;;;;;;11.99;78.83;92868.41;5024016;28;20223;-66
2022/12/11 02:05:06;;;;;;;10.87;9.77;;;;;;;11.99;78.27;92863.94;5045065;28;20233;-66
2022/12/11 02:07:40;;;;;;;11.53;8.60;;;;;;;12.02;78.12;92858.22;5039197;28;20217;-66
2022/12/11 02:10:07;;;;;;;10.93;8.73;;;;;;;11.95;77.78;92835.59;5048085;28;20229;-66
2022/12/11 02:12:55;;;;;;;11.00;8.27;;;;;;;11.73;79.24;92828.00;5036091;28;20210;-66
2022/12/11 02:15:36;;;;;;;14.50;10.10;;;;;;;11.80;79.30;92823.50;5037102;28;20299;-66
2022/12/11 02:18:30;;;;;;;11.77;10.10;;;;;;;11.86;79.27;92845.59;5021860;28;20245;-66
2022/12/11 02:21:07;;;;;;;11.37;9.27;;;;;;;11.93;78.73;92801.59;5018511;28;20229;-66
2022/12/11 02:23:48;;;;;;;12.87;8.87;;;;;;;11.84;78.87;92802.81;5018527;28;20222;-66
2022/12/11 02:27:15;;;;;;;9.70;8.70;;;;;;;11.93;79.17;92806.06;5022547;28;20230;-66
2022/12/11 02:29:51;;;;;;;10.70;8.50;;;;;;;12.01;78.68;92782.09;4975048;28;20224;-66
2022/12/11 02:32:42;;;;;;;6.43;5.83;;;;;;;12.03;77.76;92751.88;4967905;28;20234;-66
2022/12/11 02:35:30;;;;;;;10.33;5.77;;;;;;;12.10;77.51;92749.97;4955376;28;20224;-66
2022/12/11 02:38:01;;;;;;;7.40;6.53;;;;;;;12.14;77.48;92774.06;4966742;28;20239;-66
2022/12/11 02:40:30;;;;;;;10.03;6.60;;;;;;;12.17;77.95;92783.38;4968597;28;20222;-66
2022/12/11 02:43:00;;;;;;;7.87;7.07;;;;;;;12.17;77.87;92778.09;4957812;28;20191;-67
2022/12/11 02:45:27;;;;;;;9.13;6.80;;;;;;;12.16;77.94;92782.53;4951849;28;20287;-67
2022/12/11 02:47:55;;;;;;;6.90;6.10;;;;;;;11.90;78.23;92784.38;4968253;28;20232;-66
2022/12/11 02:50:22;;;;;;;8.27;5.67;;;;;;;12.00;77.65;92793.63;4969501;28;20274;-66
2022/12/11 02:52:51;;;;;;;8.70;5.43;;;;;;;11.76;78.31;92806.53;4954266;28;20253;-66
2022/12/11 02:55:17;;;;;;;6.70;5.30;;;;;;;11.66;79.36;92785.94;4946085;28;20224;-66
2022/12/11 02:58:11;;;;;;;8.57;5.47;;;;;;;11.87;77.93;92791.91;4970681;28;20199;-66
2022/12/11 03:00:37;;;;;;;7.60;5.10;;;;;;;11.98;77.59;92793.06;4968679;28;20188;-66
2022/12/11 03:03:03;;;;;;;7.40;4.97;;;;;;;11.98;76.87;92779.88;4966798;28;20200;-66
2022/12/11 03:05:29;;;;;;;4.83;4.33;;;;;;;12.06;75.92;92792.78;4990041;28;20213;-66
2022/12/11 03:07:55;;;;;;;4.43;3.40;;;;;;;11.84;76.53;92794.91;5020548;28;20312;-66
2022/12/11 03:10:20;;;;;;;3.77;2.60;;;;;;;11.97;75.55;92776.41;5015633;28;20235;-66
2022/12/11 03:12:49;;;;;;;3.97;3.27;;;;;;;12.05;75.71;92770.88;5019281;28;20259;-66
2022/12/11 03:15:17;;;;;;;5.83;3.97;;;;;;;12.18;75.77;92777.88;5026242;28;20222;-65
2022/12/11 03:18:14;;;;;;;4.83;3.90;;;;;;;12.18;76.54;92767.34;5042491;28;20240;-66
2022/12/11 03:20:43;;;;;;;4.93;4.03;;;;;;;12.21;76.66;92766.91;5032784;28;20222;-66
2022/12/11 03:23:21;;;;;;;5.13;3.43;;;;;;;12.19;76.56;92760.22;5014927;28;20230;-66
2022/12/11 03:25:52;;;;;;;4.93;3.00;;;;;;;12.08;76.01;92759.09;5028318;28;20283;-66
2022/12/11 03:28:40;;;;;;;4.20;2.53;;;;;;;12.14;74.49;92766.16;5021595;28;20249;-66
2022/12/11 03:31:11;;;;;;;3.33;1.90;;;;;;;12.16;73.51;92758.84;5036876;28;20230;-66
2022/12/11 03:33:40;;;;;;;2.10;1.60;;;;;;;12.25;72.18;92756.75;5042939;28;20229;-66
2022/12/11 03:36:17;;;;;;;2.63;1.90;;;;;;;12.33;73.08;92775.72;5029426;28;20217;-66
2022/12/11 03:38:49;;;;;;;2.40;1.73;;;;;;;12.41;73.43;92779.91;5036943;28;20194;-66
2022/12/11 03:41:18;;;;;;;2.07;1.90;;;;;;;12.42;73.80;92788.59;5037567;28;20229;-65
2022/12/11 03:43:44;;;;;;;1.70;1.60;;;;;;;12.35;72.92;92805.28;5043163;28;20248;-66
2022/12/11 03:46:13;;;;;;;1.50;1.30;;;;;;;12.38;70.07;92806.69;5049888;28;20230;-66
2022/12/11 03:48:41;;;;;;;4.87;1.90;;;;;;;12.49;72.21;92805.97;5047436;28;20225;-66
2022/12/11 03:51:07;;;;;;;1.97;1.77;;;;;;;12.40;72.89;92817.81;5035866;28;20245;-65
2022/12/11 03:53:35;;;;;;;1.83;1.50;;;;;;;12.45;70.31;92798.72;5041520;28;20182;-66
2022/12/11 03:56:05;;;;;;;1.77;1.20;;;;;;;12.56;69.95;92792.72;5040117;28;20249;-66
2022/12/11 03:58:31;;;;;;;2.07;1.17;;;;;;;12.61;69.49;92819.22;5032843;28;20307;-66
2022/12/11 04:00:56;;;;;;;2.27;1.60;;;;;;;12.63;69.79;92838.28;5028304;28;20693;-65
2022/12/11 04:03:22;;;;;;;1.20;1.10;;;;;;;12.54;69.98;92839.59;5026866;28;20217;-65
2022/12/11 04:05:50;;;;;;;1.73;1.17;;;;;;;12.61;70.05;92842.16;5021963;28;20218;-65
2022/12/11 04:08:19;;;;;;;1.80;1.00;;;;;;;12.67;69.46;92828.09;5034635;28;20216;-65
2022/12/11 04:10:45;;;;;;;1.37;1.10;;;;;;;12.75;69.33;92841.84;5052047;28;20240;-65
2022/12/11 04:13:11;;;;;;;2.20;1.30;;;;;;;12.80;69.26;92844.63;5045441;28;20237;-65
2022/12/11 04:15:37;;;;;;;1.97;1.00;;;;;;;12.77;69.51;92845.03;5045049;28;20267;-65
2022/12/11 04:26:19;;;;;;;1.80;0.90;;;;;;;12.85;69.01;92851.84;5039969;28;20224;-66
2022/12/11 04:28:47;;;;;;;1.53;1.10;;;;;;;12.96;69.07;92853.78;5058605;28;20218;-67
2022/12/11 04:31:16;;;;;;;1.37;0.97;;;;;;;12.94;69.89;92857.69;5044012;28;20226;-66
2022/12/11 04:33:42;;;;;;;2.53;1.33;;;;;;;12.99;70.40;92863.91;5039341;28;20285;-66
2022/12/11 04:36:08;;;;;;;2.80;1.20;;;;;;;12.95;70.32;92864.56;5042659;28;20423;-67
2022/12/11 04:38:34;;;;;;;3.00;1.00;;;;;;;13.02;69.77;92867.94;5045605;28;20291;-66
2022/12/11 04:41:01;;;;;;;1.73;1.00;;;;;;;13.05;69.52;92880.69;5041103;28;20340;-66
2022/12/11 04:43:26;;;;;;;6.10;0.90;;;;;;;12.97;66.97;92884.41;5040624;28;20221;-66
2022/12/11 04:46:00;;;;;;;1.67;1.00;;;;;;;13.02;63.93;92870.56;5031880;28;20234;-66
2022/12/11 04:48:26;;;;;;;1.50;0.77;;;;;;;13.20;60.87;92854.75;5032894;28;20316;-66
2022/12/11 04:50:51;;;;;;;2.23;0.50;;;;;;;13.35;59.32;92891.34;5021217;28;20250;-66
2022/12/11 04:53:17;;;;;;;2.13;0.63;;;;;;;13.60;56.13;92870.13;5037785;28;20240;-65
2022/12/11 04:55:42;;;;;;;3.50;0.50;;;;;;;13.88;54.21;92876.69;5041128;28;20305;-65
2022/12/11 04:58:07;;;;;;;1.23;0.57;;;;;;;13.94;52.55;92880.25;5049145;28;20221;-65
2022/12/11 05:00:33;;;;;;;0.37;0.37;;;;;;;13.93;52.83;92899.78;5041906;28;20225;-66
2022/12/11 05:02:58;;;;;;;0.90;0.50;;;;;;;14.01;50.75;92908.22;5042100;28;20190;-66
2022/12/11 05:05:24;;;;;;;2.28;0.60;;;;;;;13.99;52.09;92894.41;5053740;28;20263;-66
2022/12/11 05:07:49;;;;;;;2.10;0.50;;;;;;;14.02;52.73;92904.53;5037512;28;20213;-66
2022/12/11 05:10:14;;;;;;;1.70;0.60;;;;;;;13.99;52.82;92894.41;5038298;28;20237;-66
2022/12/11 05:12:40;;;;;;;2.00;0.50;;;;;;;13.98;53.12;92884.06;5039880;28;20225;-66
2022/12/11 05:15:06;;;;;;;1.65;0.50;;;;;;;14.09;52.75;92913.19;5046239;28;20186;-66
2022/12/11 05:17:32;;;;;;;1.80;0.80;;;;;;;14.04;53.01;92917.53;5039370;28;20193;-66
2022/12/11 05:19:58;;;;;;;0.60;0.50;;;;;;;14.07;53.18;92893.28;5041815;28;20241;-66
2022/12/11 05:22:23;;;;;;;1.70;0.73;;;;;;;14.14;53.10;92920.44;5038428;28;20222;-69
2022/12/11 05:24:49;;;;;;;1.00;0.80;;;;;;;14.17;53.25;92919.19;5047660;28;20406;-68
2022/12/11 05:27:14;;;;;;;1.20;0.60;;;;;;;14.15;53.37;92914.13;5052195;28;20225;-68
2022/12/11 05:29:39;;;;;;;1.83;0.70;;;;;;;14.19;53.67;92917.91;5040663;28;20213;-68
2022/12/11 05:32:05;;;;;;;2.80;0.70;;;;;;;14.20;54.17;92910.81;5035359;28;20224;-69
2022/12/11 05:34:31;;;;;;;1.50;0.80;;;;;;;14.12;53.55;92917.22;5023525;28;20241;-68
2022/12/11 05:36:57;;;;;;;1.63;0.97;;;;;;;14.10;53.82;92904.22;5039899;28;20225;-69
2022/12/11 05:39:22;;;;;;;4.22;1.10;;;;;;;14.08;54.98;92913.38;5042061;28;20230;-69
2022/12/11 05:41:48;;;;;;;1.43;0.90;;;;;;;14.06;54.62;92891.66;5050817;28;20190;-69
2022/12/11 05:44:13;;;;;;;1.07;0.70;;;;;;;13.93;55.24;92897.16;5039409;28;20217;-69
2022/12/11 05:46:39;;;;;;;1.03;0.77;;;;;;;13.81;55.46;92882.03;5048405;28;20294;-69
2022/12/11 05:49:04;;;;;;;1.23;0.70;;;;;;;13.94;54.51;92882.91;5050991;28;20229;-68
2022/12/11 05:51:33;;;;;;;1.33;0.80;;;;;;;14.02;54.39;92878.09;5047976;28;20221;-69
2022/12/11 05:53:58;;;;;;;1.63;0.90;;;;;;;14.04;55.53;92881.31;5046971;28;20189;-69
2022/12/11 05:56:29;;;;;;;1.33;0.83;;;;;;;14.01;55.21;92863.28;5046665;28;20177;-69
2022/12/11 05:58:56;;;;;;;1.97;1.00;;;;;;;13.98;56.45;92869.03;5045267;28;20272;-69
2022/12/11 06:01:33;;;;;;;1.03;0.73;;;;;;;13.98;53.61;92866.38;5038201;28;20292;-69
2022/12/11 06:03:59;;;;;;;1.33;0.70;;;;;;;13.99;53.46;92867.97;5038006;28;20222;-69
2022/12/11 06:06:25;;;;;;;2.53;0.70;;;;;;;14.16;52.54;92859.41;5036797;28;20234;-68
2022/12/11 06:08:51;;;;;;;0.90;0.80;;;;;;;14.10;54.01;92858.47;5041789;28;20197;-67
2022/12/11 06:11:17;;;;;;;1.93;0.60;;;;;;;14.15;54.36;92881.59;5047667;28;20181;-68
2022/12/11 06:13:43;;;;;;;3.30;0.80;;;;;;;14.17;54.04;92855.75;5022900;28;20246;-68
2022/12/11 06:16:09;;;;;;;1.63;1.10;;;;;;;14.25;54.41;92852.78;5026443;28;20296;-67
2022/12/11 06:18:39;;;;;;;2.13;0.87;;;;;;;14.21;54.12;92889.41;5026593;28;20269;-67
2022/12/11 06:21:22;;;;;;;2.80;0.83;;;;;;;14.17;54.72;92884.81;5017395;28;20179;-68
2022/12/11 06:23:49;;;;;;;1.93;0.90;;;;;;;14.22;52.91;92922.75;5025779;28;20178;-67
2022/12/11 06:26:16;;;;;;;2.47;0.90;;;;;;;14.23;51.82;92924.38;5028462;28;20240;-67
2022/12/11 06:28:41;;;;;;;1.35;0.60;;;;;;;14.30;50.64;92893.34;5036585;28;20249;-67
2022/12/11 06:31:07;;;;;;;1.65;0.60;;;;;;;14.37;50.85;92903.03;5024999;28;20234;-68
2022/12/11 06:33:33;;;;;;;0.97;0.70;;;;;;;14.43;50.80;92934.63;5017926;28;20229;-67
2022/12/11 06:36:03;;;;;;;1.10;0.70;;;;;;;14.49;50.82;92917.88;5029375;28;20190;-68
2022/12/11 06:38:29;;;;;;;0.80;0.80;;;;;;;14.55;51.40;92914.34;5045565;28;20278;-68
2022/12/11 06:40:56;;;;;;;1.50;1.10;;;;;;;14.65;51.98;92915.63;5037572;28;20229;-67
2022/12/11 06:43:22;;;;;;;2.07;0.90;;;;;;;14.71;50.56;92910.25;5046432;28;20228;-67
2022/12/11 06:45:48;;;;;;;0.90;0.60;;;;;;;14.66;50.68;92901.38;5043584;28;20221;-68
2022/12/11 06:48:13;;;;;;;1.10;0.55;;;;;;;14.72;50.71;92866.06;5042459;28;20307;-68
2022/12/11 06:50:39;;;;;;;1.52;0.73;;;;;;;14.79;52.21;92882.66;5040174;28;20312;-68
2022/12/11 06:53:04;;;;;;;1.35;0.90;;;;;;;14.77;51.31;92903.22;5046863;28;20224;-68
2022/12/11 06:55:30;;;;;;;2.05;1.13;;;;;;;14.64;50.92;92909.53;5043052;28;20938;-67
2022/12/11 06:57:55;;;;;;;2.28;1.23;;;;;;;14.54;52.09;92923.34;5037198;28;20287;-70
2022/12/11 07:00:21;;;;;;;1.50;0.70;;;;;;;14.49;53.24;92936.41;5045368;28;20659;-67
2022/12/11 07:02:46;;;;;;;1.10;1.00;;;;;;;14.61;51.99;92927.72;5043640;28;20214;-67
2022/12/11 07:05:12;;;;;;;2.20;0.80;;;;;;;14.77;49.99;92911.97;5042692;28;20222;-66
2022/12/11 07:07:37;;;;;;;1.95;0.65;;;;;;;14.87;50.99;92929.94;5034525;28;20229;-66
2022/12/11 07:10:03;;;;;;;0.98;0.70;;;;;;;14.95;51.38;92939.38;5043974;28;20225;-67
2022/12/11 07:12:28;;;;;;;1.52;0.90;;;;;;;14.92;50.03;92914.16;5045800;28;20273;-67
2022/12/11 07:14:54;;;;;;;1.35;0.80;;;;;;;14.98;50.54;92929.13;5047570;28;20316;-67
2022/12/11 07:17:19;;;;;;;3.25;0.90;;;;;;;15.06;50.65;92927.19;5051255;28;20189;-70
2022/12/11 07:19:45;;;;;;;1.17;0.60;;;;;;;15.09;50.87;92910.84;5044650;28;20216;-69
2022/12/11 07:22:10;;;;;;;1.45;0.85;;;;;;;15.27;49.45;92917.84;5058990;28;20234;-66
2022/12/11 07:24:36;;;;;;;1.73;0.80;;;;;;;15.12;50.43;92936.84;5037138;28;20250;-67
2022/12/11 07:27:01;;;;;;;2.00;0.90;;;;;;;15.20;51.11;92920.59;5044592;28;20292;-67
2022/12/11 07:29:26;;;;;;;4.05;1.00;;;;;;;15.10;51.34;92938.91;5044367;28;20562;-68
2022/12/11 07:31:52;;;;;;;1.33;0.75;;;;;;;15.19;51.66;92945.47;5040500;28;20222;-67
2022/12/11 07:34:17;;;;;;;1.73;1.10;;;;;;;15.28;53.43;92945.94;5037256;28;20237;-67
2022/12/11 07:36:43;;;;;;;2.92;1.17;;;;;;;15.19;51.85;92956.06;5050630;28;20230;-67
2022/12/11 07:39:11;;;;;;;1.23;1.05;;;;;;;15.26;53.31;92966.53;5048389;28;20218;-68
2022/12/11 07:41:37;;;;;;;2.17;0.90;;;;;;;15.33;52.23;92983.91;5032871;28;20269;-68
2022/12/11 07:44:03;;;;;;;1.70;0.90;;;;;;;15.40;52.49;92983.81;5036505;28;20237;-68
2022/12/11 07:46:31;;;;;;;1.73;1.00;;;;;;;15.40;53.02;92987.25;5042168;28;20225;-67
2022/12/11 07:48:56;;;;;;;3.33;1.10;;;;;;;15.35;50.64;93004.88;5038730;28;20214;-67
2022/12/11 07:51:26;;;;;;;2.40;1.02;;;;;;;15.32;50.20;92977.03;5043050;28;20571;-67
2022/12/11 07:54:00;;;;;;;0.68;0.68;;;;;;;15.37;49.52;92974.50;5051430;28;20185;-67
2022/12/11 07:56:26;;;;;;;1.45;0.90;;;;;;;15.47;51.61;92987.13;5052329;28;20186;-68
2022/12/11 07:58:54;;;;;;;1.13;1.00;;;;;;;15.53;51.46;92964.22;5041720;28;20217;-68
2022/12/11 08:01:23;;;;;;;1.10;1.00;;;;;;;15.55;49.88;92975.38;5041189;28;20261;-68
2022/12/11 08:03:49;;;;;;;2.45;1.23;;;;;;;15.54;49.28;92979.09;5041364;28;20292;-68
2022/12/11 08:06:15;;;;;;;1.38;0.95;;;;;;;15.52;50.06;93003.13;5041258;28;20300;-69
2022/12/11 08:08:41;;;;;;;2.83;1.20;;;;;;;15.44;50.27;92985.75;5043590;28;20212;-68
2022/12/11 08:11:10;;;;;;;2.05;1.00;;;;;;;15.33;52.06;92994.50;5045178;28;20218;-68
2022/12/11 08:13:36;;;;;;;1.37;0.77;;;;;;;15.24;50.21;92989.81;5039841;28;20360;-69
2022/12/11 08:16:06;;;;;;;2.43;0.87;;;;;;;15.39;51.63;92995.44;5044833;28;20317;-69
2022/12/11 08:18:33;;;;;;;2.03;1.00;;;;;;;15.48;51.38;92977.38;5035091;28;20226;-69
2022/12/11 08:20:58;;;;;;;1.65;1.00;;;;;;;15.46;51.99;93004.06;5027968;28;20187;-69
2022/12/11 08:23:24;;;;;;;1.50;0.82;;;;;;;15.34;51.42;92990.00;5021941;28;20236;-69
2022/12/11 08:25:49;;;;;;;4.83;1.20;;;;;;;15.42;51.80;93005.56;5045417;28;20304;-69
2022/12/11 08:28:15;;;;;;;3.83;1.10;;;;;;;15.49;51.62;93006.25;5040170;28;20222;-69
2022/12/11 08:30:40;;;;;;;2.30;1.00;;;;;;;15.40;50.74;93018.25;5048714;28;20252;-68
2022/12/11 08:33:06;;;;;;;0.75;0.65;;;;;;;15.39;50.01;92988.28;5044039;28;20182;-69
2022/12/11 08:35:32;;;;;;;1.75;0.82;;;;;;;15.48;50.25;92974.72;5036674;28;20181;-69
2022/12/11 08:37:57;;;;;;;1.25;0.98;;;;;;;15.59;50.63;93005.69;5042144;28;20263;-69
2022/12/11 08:40:23;;;;;;;1.23;0.80;;;;;;;15.56;49.53;92972.50;5040677;28;20681;-69
2022/12/11 08:42:48;;;;;;;1.67;0.85;;;;;;;15.56;49.65;92974.38;5049558;28;20218;-69
2022/12/11 08:45:14;;;;;;;1.58;1.02;;;;;;;15.65;50.87;92971.09;5024938;28;20218;-69
2022/12/11 08:47:40;;;;;;;1.52;1.00;;;;;;;15.71;51.67;92966.75;5019797;28;20182;-69
2022/12/11 08:50:06;;;;;;;3.45;2.20;;;;;;;15.75;52.01;92973.22;5042859;28;20287;-69
2022/12/11 08:52:33;;;;;;;1.17;1.05;;;;;;;15.77;51.08;92968.50;5039667;28;20611;-70
2022/12/11 08:54:59;;;;;;;1.83;1.00;;;;;;;15.81;51.83;92979.41;5053190;28;20221;-69
2022/12/11 08:57:24;;;;;;;1.55;1.00;;;;;;;15.78;51.54;92977.25;5045036;28;20218;-69
2022/12/11 08:59:49;;;;;;;1.08;0.98;;;;;;;15.78;51.38;92959.50;5048262;28;20186;-68
2022/12/11 09:02:16;;;;;;;2.53;1.10;;;;;;;15.85;51.75;92975.25;5053685;28;20186;-68
2022/12/11 09:04:42;;;;;;;2.50;1.50;;;;;;;15.83;52.68;92980.00;5031912;28;20300;-73
2022/12/11 09:07:07;;;;;;;2.40;1.10;;;;;;;15.86;53.27;92982.97;5046274;28;20226;-68
2022/12/11 09:09:32;;;;;;;2.13;1.10;;;;;;;15.87;52.29;92973.16;5043387;28;20234;-69
2022/12/11 09:12:00;;;;;;;2.55;1.25;;;;;;;15.86;53.45;92969.72;5041315;28;20322;-68
2022/12/11 09:14:26;;;;;;;1.73;1.33;;;;;;;15.94;52.00;92957.94;5046255;28;20222;-70
2022/12/11 09:16:51;;;;;;;1.67;1.10;;;;;;;15.90;51.77;92964.75;5035605;28;20245;-70
2022/12/11 09:19:17;;;;;;;3.50;1.00;;;;;;;15.90;51.16;92948.03;5038540;28;20221;-70
2022/12/11 09:21:43;;;;;;;2.83;1.50;;;;;;;15.85;51.38;92948.75;5053302;28;20311;-68
2022/12/11 09:24:11;;;;;;;2.55;2.35;;;;;;;15.88;50.82;92943.78;5042115;28;20226;-69
2022/12/11 09:26:37;;;;;;;1.75;1.00;;;;;;;15.97;49.01;92954.03;5047184;28;20192;-68
2022/12/11 09:29:04;;;;;;;2.13;1.10;;;;;;;15.96;49.16;92945.28;5041323;28;20301;-67
2022/12/11 09:31:31;;;;;;;1.83;1.40;;;;;;;15.86;49.46;92961.78;5047890;28;20229;-68
2022/12/11 09:34:03;;;;;;;3.25;1.75;;;;;;;16.09;49.88;92966.22;5042043;28;20232;-70
2022/12/11 09:36:29;;;;;;;2.65;1.65;;;;;;;16.22;49.31;92959.00;5036890;28;20225;-73
2022/12/11 09:38:55;;;;;;;1.45;1.05;;;;;;;16.22;49.47;92954.50;5041574;28;20182;-70
2022/12/11 09:41:20;;;;;;;1.17;1.05;;;;;;;16.29;48.83;92954.38;5051205;28;20185;-71
2022/12/11 09:43:58;;;;;;;2.22;1.17;;;;;;;16.24;49.22;92952.44;5042915;28;20225;-69
2022/12/11 09:46:26;;;;;;;3.72;1.92;;;;;;;16.34;48.82;92956.31;5056206;28;20229;-69
2022/12/11 09:48:52;;;;;;;2.67;1.50;;;;;;;16.48;48.38;92952.31;5047019;28;20227;-70
2022/12/11 09:51:18;;;;;;;2.60;0.98;;;;;;;16.45;47.83;92958.13;5039401;28;20697;-70
2022/12/11 09:53:44;;;;;;;1.83;0.90;;;;;;;16.10;48.64;92956.41;5038937;28;20265;-69
2022/12/11 09:56:31;;;;;;;1.77;1.20;;;;;;;16.08;49.52;92950.53;5030618;28;20249;-69
2022/12/11 09:59:16;;;;;;;1.92;1.70;;;;;;;16.09;50.33;92950.31;5053555;28;20218;-67
2022/12/11 10:02:01;;;;;;;2.40;1.30;;;;;;;16.39;49.46;92951.91;5040902;28;20253;-69
2022/12/11 10:04:37;;;;;;;2.90;1.17;;;;;;;16.39;48.83;92949.25;5040386;28;20222;-69
2022/12/11 10:07:21;;;;;;;1.75;1.10;;;;;;;16.59;48.82;92948.00;5051462;28;20260;-69
2022/12/11 10:10:06;;;;;;;1.58;1.42;;;;;;;16.59;48.83;92953.31;5039265;28;20243;-69
2022/12/11 10:12:44;;;;;;;2.35;1.10;;;;;;;16.72;48.43;92945.84;5046206;28;20316;-67
2022/12/11 10:15:34;;;;;;;3.05;1.25;;;;;;;16.78;48.55;92951.28;5029607;28;20241;-70
2022/12/11 10:18:00;;;;;;;1.80;1.17;;;;;;;16.71;48.58;92948.75;5042179;28;20641;-69
2022/12/11 10:20:34;;;;;;;1.20;1.08;;;;;;;16.71;48.70;92940.78;5039797;28;20570;-69
2022/12/11 10:23:00;;;;;;;1.10;0.90;;;;;;;16.61;47.27;92933.47;5035448;28;20249;-69
2022/12/11 10:25:30;;;;;;;0.98;0.88;;;;;;;16.33;47.47;92928.97;5039651;28;20301;-68
2022/12/11 10:27:56;;;;;;;1.00;0.80;;;;;;;16.59;48.31;92937.41;5039904;28;20225;-68
2022/12/11 10:30:36;;;;;;;1.83;1.00;;;;;;;16.63;49.28;92944.66;5039990;28;20563;-67
2022/12/11 10:33:10;;;;;;;2.47;1.25;;;;;;;16.79;49.49;92958.22;5040521;28;20186;-66
2022/12/11 10:35:44;;;;;;;3.15;1.70;;;;;;;16.82;49.75;92942.59;5019425;28;20198;-66
2022/12/11 10:38:37;;;;;;;2.03;1.92;;;;;;;16.57;50.27;92944.78;5025694;28;20217;-66
2022/12/11 10:41:09;;;;;;;1.60;1.50;;;;;;;16.48;50.86;92944.38;4990700;28;20222;-65
2022/12/11 10:43:41;;;;;;;2.10;1.90;;;;;;;16.69;51.48;92943.69;5004599;28;20301;-67
2022/12/11 10:46:17;;;;;;;2.53;1.98;;;;;;;16.75;51.76;92936.59;5001420;28;20233;-68
2022/12/11 10:48:52;;;;;;;1.60;1.50;;;;;;;16.95;52.28;92915.72;5004148;28;20285;-66
2022/12/11 10:51:18;;;;;;;1.90;1.38;;;;;;;17.47;52.79;92914.59;5004967;28;20645;-68
2022/12/11 10:53:49;;;;;;;1.30;1.20;;;;;;;17.84;50.96;92912.19;4988175;28;20245;-68
2022/12/11 10:56:23;;;;;;;1.65;1.40;;;;;;;18.13;49.02;92908.53;4999666;28;20311;-67
2022/12/11 10:58:49;;;;;;;2.45;1.13;;;;;;;18.35;48.53;92911.16;5003118;28;20218;-67
2022/12/11 11:01:18;;;;;;;1.23;1.10;;;;;;;18.48;47.43;92913.41;5012850;28;20238;-69
2022/12/11 11:03:58;;;;;;;1.63;1.20;;;;;;;18.56;46.64;92910.28;5023709;28;20252;-67
2022/12/11 11:06:25;;;;;;;1.50;1.10;;;;;;;18.58;45.84;92904.69;5020171;28;20238;-67
2022/12/11 11:08:54;;;;;;;1.15;1.05;;;;;;;18.52;46.22;92907.34;5022473;28;20186;-67
2022/12/11 11:11:20;;;;;;;1.00;0.90;;;;;;;18.49;44.73;92902.50;5033381;28;20317;-67
2022/12/11 11:13:46;;;;;;;1.30;1.20;;;;;;;18.29;45.12;92894.34;5009378;28;20245;-68
2022/12/11 11:16:14;;;;;;;1.67;1.00;;;;;;;18.23;44.36;92897.97;5026814;28;20230;-66
2022/12/11 11:18:42;;;;;;;1.05;1.02;;;;;;;18.23;43.68;92888.16;5033243;28;20249;-69
2022/12/11 11:21:16;;;;;;;1.23;1.13;;;;;;;18.21;44.14;92895.59;5026352;28;20185;-69
2022/12/11 11:23:43;;;;;;;1.45;1.35;;;;;;;18.19;44.45;92891.56;5041413;28;20182;-69
2022/12/11 11:26:09;;;;;;;1.92;1.73;;;;;;;18.01;44.73;92890.03;5055060;28;20245;-69
2022/12/11 11:28:37;;;;;;;2.20;1.52;;;;;;;18.00;44.96;92891.91;5044697;28;20253;-70
2022/12/11 11:31:12;;;;;;;1.40;1.30;;;;;;;17.91;45.62;92885.44;5056001;28;20245;-70
2022/12/11 11:33:56;;;;;;;1.25;1.15;;;;;;;17.82;45.74;92889.56;5048702;28;20221;-69
2022/12/11 11:36:27;;;;;;;2.38;1.00;;;;;;;17.70;46.64;92894.97;5058952;28;20217;-68
2022/12/11 11:39:01;;;;;;;3.10;2.58;;;;;;;17.60;47.11;92887.69;5042868;28;20186;-68
2022/12/11 11:41:37;;;;;;;1.95;1.35;;;;;;;17.67;47.00;92899.97;5045045;28;20170;-68
2022/12/11 11:44:07;;;;;;;1.48;1.15;;;;;;;17.63;46.77;92900.47;5038095;28;20225;-69
2022/12/11 11:46:48;;;;;;;3.38;2.15;;;;;;;17.71;48.21;92890.47;5031462;28;20226;-67